createdAt,value
2018-12-18T00:00:59.240Z,1017.29
2018-12-18T00:01:59.215Z,1017.31
2018-12-18T00:02:59.191Z,1017.28
2018-12-18T00:03:59.166Z,1017.26
2018-12-18T00:04:59.142Z,1017.22
2018-12-18T00:05:59.116Z,1017.24
2018-12-18T00:06:59.093Z,1017.26
2018-12-18T00:07:59.065Z,1017.24
2018-12-18T00:08:59.043Z,1017.25
2018-12-18T00:09:59.017Z,1017.29
2018-12-18T00:10:58.994Z,1017.26
2018-12-18T00:11:59.440Z,1017.22
2018-12-18T00:12:58.941Z,1017.23
2018-12-18T00:13:58.917Z,1017.20
2018-12-18T00:14:58.891Z,1017.21
2018-12-18T00:15:58.866Z,1017.23
2018-12-18T00:16:58.843Z,1017.23
2018-12-18T00:17:58.818Z,1017.27
2018-12-18T00:18:58.952Z,1017.25
2018-12-18T00:19:58.768Z,1017.23
2018-12-18T00:20:58.745Z,1017.26
2018-12-18T00:21:58.720Z,1017.21
2018-12-18T00:22:58.694Z,1017.26
2018-12-18T00:23:58.670Z,1017.21
2018-12-18T00:24:58.674Z,1017.21
2018-12-18T00:25:58.622Z,1017.25
2018-12-18T00:26:58.595Z,1017.26
2018-12-18T00:27:58.571Z,1017.24
2018-12-18T00:28:58.547Z,1017.21
2018-12-18T00:29:58.525Z,1017.26
2018-12-18T00:30:58.496Z,1017.21
2018-12-18T00:31:58.472Z,1017.27
2018-12-18T00:32:58.446Z,1017.25
2018-12-18T00:33:58.425Z,1017.21
2018-12-18T00:34:58.396Z,1017.26
2018-12-18T00:35:58.372Z,1017.26
2018-12-18T00:36:58.347Z,1017.21
2018-12-18T00:37:58.323Z,1017.24
2018-12-18T00:38:58.296Z,1017.27
2018-12-18T00:39:58.274Z,1017.22
2018-12-18T00:40:58.249Z,1017.25
2018-12-18T00:41:58.227Z,1017.26
2018-12-18T00:42:58.198Z,1017.28
2018-12-18T00:43:58.176Z,1017.28
2018-12-18T00:44:58.150Z,1017.26
2018-12-18T00:45:58.126Z,1017.28
2018-12-18T00:46:58.100Z,1017.24
2018-12-18T00:47:58.075Z,1017.26
2018-12-18T00:48:58.050Z,1017.28
2018-12-18T00:49:58.941Z,1017.28
2018-12-18T00:50:58.000Z,1017.30
2018-12-18T00:51:57.978Z,1017.30
2018-12-18T00:52:57.952Z,1017.31
2018-12-18T00:53:57.935Z,1017.27
2018-12-18T00:54:57.902Z,1017.31
2018-12-18T00:55:57.878Z,1017.28
2018-12-18T00:56:57.852Z,1017.33
2018-12-18T00:57:57.830Z,1017.31
2018-12-18T00:58:57.802Z,1017.32
2018-12-18T00:59:57.777Z,1017.28
2018-12-18T01:00:57.754Z,1017.32
2018-12-18T01:01:57.729Z,1017.29
2018-12-18T01:02:57.702Z,1017.28
2018-12-18T01:03:57.681Z,1017.29
2018-12-18T01:04:57.654Z,1017.30
2018-12-18T01:05:57.631Z,1017.25
2018-12-18T01:06:57.605Z,1017.25
2018-12-18T01:07:57.580Z,1017.26
2018-12-18T01:08:57.555Z,1017.21
2018-12-18T01:09:57.532Z,1017.18
2018-12-18T01:10:57.512Z,1017.17
2018-12-18T01:11:57.482Z,1017.21
2018-12-18T01:12:57.459Z,1017.27
2018-12-18T01:13:57.432Z,1017.25
2018-12-18T01:14:57.406Z,1017.22
2018-12-18T01:15:57.384Z,1017.27
2018-12-18T01:16:57.378Z,1017.26
2018-12-18T01:17:57.336Z,1017.28
2018-12-18T01:18:57.311Z,1017.30
2018-12-18T01:19:57.285Z,1017.28
2018-12-18T01:20:57.260Z,1017.34
2018-12-18T01:21:57.235Z,1017.29
2018-12-18T01:22:57.210Z,1017.30
2018-12-18T01:23:57.184Z,1017.26
2018-12-18T01:24:57.162Z,1017.30
2018-12-18T01:25:57.137Z,1017.27
2018-12-18T01:26:57.112Z,1017.30
2018-12-18T01:27:57.087Z,1017.25
2018-12-18T01:28:57.061Z,1017.25
2018-12-18T01:29:57.035Z,1017.23
2018-12-18T01:30:57.011Z,1017.24
2018-12-18T01:31:56.987Z,1017.26
2018-12-18T01:32:56.962Z,1017.25
2018-12-18T01:33:59.370Z,1017.19
2018-12-18T01:34:56.912Z,1017.25
2018-12-18T01:35:56.887Z,1017.22
2018-12-18T01:36:56.863Z,1017.23
2018-12-18T01:37:56.839Z,1017.28
2018-12-18T01:38:56.813Z,1017.25
2018-12-18T01:39:56.789Z,1017.29
2018-12-18T01:40:56.764Z,1017.26
2018-12-18T01:41:56.739Z,1017.25
2018-12-18T01:42:56.713Z,1017.26
2018-12-18T01:43:56.693Z,1017.29
2018-12-18T01:44:56.665Z,1017.31
2018-12-18T01:45:56.642Z,1017.27
2018-12-18T01:46:56.617Z,1017.25
2018-12-18T01:47:56.591Z,1017.24
2018-12-18T01:48:56.567Z,1017.27
2018-12-18T01:49:56.542Z,1017.22
2018-12-18T01:50:57.019Z,1017.26
2018-12-18T01:51:56.495Z,1017.28
2018-12-18T01:52:56.470Z,1017.30
2018-12-18T01:53:56.443Z,1017.27
2018-12-18T01:54:56.420Z,1017.28
2018-12-18T01:55:56.393Z,1017.32
2018-12-18T01:56:56.369Z,1017.33
2018-12-18T01:57:56.351Z,1017.32
2018-12-18T01:58:56.319Z,1017.32
2018-12-18T01:59:56.295Z,1017.33
2018-12-18T02:00:56.270Z,1017.37
2018-12-18T02:01:56.249Z,1017.39
2018-12-18T02:02:56.222Z,1017.40
2018-12-18T02:03:56.197Z,1017.38
2018-12-18T02:04:56.171Z,1017.33
2018-12-18T02:05:56.148Z,1017.33
2018-12-18T02:06:56.122Z,1017.31
2018-12-18T02:07:56.098Z,1017.32
2018-12-18T02:08:56.077Z,1017.27
2018-12-18T02:09:56.057Z,1017.28
2018-12-18T02:10:56.056Z,1017.27
2018-12-18T02:11:55.999Z,1017.28
2018-12-18T02:12:55.976Z,1017.21
2018-12-18T02:13:55.953Z,1017.24
2018-12-18T02:14:55.924Z,1017.24
2018-12-18T02:15:55.902Z,1017.24
2018-12-18T02:16:55.877Z,1017.26
2018-12-18T02:17:55.855Z,1017.22
2018-12-18T02:18:55.826Z,1017.22
2018-12-18T02:19:55.802Z,1017.26
2018-12-18T02:20:55.780Z,1017.17
2018-12-18T02:21:55.774Z,1017.25
2018-12-18T02:22:55.728Z,1017.15
2018-12-18T02:23:55.704Z,1017.15
2018-12-18T02:24:55.680Z,1017.13
2018-12-18T02:25:55.655Z,1017.10
2018-12-18T02:26:55.634Z,1017.08
2018-12-18T02:27:55.612Z,1017.09
2018-12-18T02:28:55.586Z,1017.08
2018-12-18T02:29:55.559Z,1017.07
2018-12-18T02:30:55.532Z,1017.06
2018-12-18T02:31:55.519Z,1017.12
2018-12-18T02:32:55.483Z,1017.13
2018-12-18T02:33:55.459Z,1017.11
2018-12-18T02:34:55.434Z,1017.14
2018-12-18T02:35:55.409Z,1017.15
2018-12-18T02:36:55.385Z,1017.20
2018-12-18T02:37:55.361Z,1017.22
2018-12-18T02:38:55.335Z,1017.23
2018-12-18T02:39:55.318Z,1017.26
2018-12-18T02:40:55.286Z,1017.32
2018-12-18T02:41:55.263Z,1017.30
2018-12-18T02:42:55.244Z,1017.32
2018-12-18T02:43:55.211Z,1017.36
2018-12-18T02:44:55.187Z,1017.27
2018-12-18T02:45:55.163Z,1017.24
2018-12-18T02:46:55.136Z,1017.21
2018-12-18T02:47:55.112Z,1017.23
2018-12-18T02:48:55.087Z,1017.22
2018-12-18T02:49:55.064Z,1017.18
2018-12-18T02:50:56.174Z,1017.21
2018-12-18T02:51:55.043Z,1017.18
2018-12-18T02:52:54.989Z,1017.18
2018-12-18T02:53:54.967Z,1017.24
2018-12-18T02:54:54.946Z,1017.22
2018-12-18T02:55:54.915Z,1017.18
2018-12-18T02:56:54.890Z,1017.24
2018-12-18T02:57:54.865Z,1017.19
2018-12-18T02:58:54.840Z,1017.14
2018-12-18T02:59:54.816Z,1017.16
2018-12-18T03:00:54.795Z,1017.14
2018-12-18T03:01:54.767Z,1017.18
2018-12-18T03:02:54.740Z,1017.21
2018-12-18T03:03:54.715Z,1017.16
2018-12-18T03:04:54.692Z,1017.15
2018-12-18T03:05:54.668Z,1017.19
2018-12-18T03:06:54.643Z,1017.20
2018-12-18T03:07:54.618Z,1017.20
2018-12-18T03:08:54.661Z,1017.16
2018-12-18T03:09:54.568Z,1017.15
2018-12-18T03:10:54.544Z,1017.18
2018-12-18T03:11:54.516Z,1017.15
2018-12-18T03:12:54.493Z,1017.16
2018-12-18T03:13:54.471Z,1017.16
2018-12-18T03:14:54.444Z,1017.19
2018-12-18T03:15:54.419Z,1017.18
2018-12-18T03:16:54.393Z,1017.26
2018-12-18T03:17:54.370Z,1017.20
2018-12-18T03:18:54.345Z,1017.24
2018-12-18T03:19:54.321Z,1017.29
2018-12-18T03:20:54.303Z,1017.26
2018-12-18T03:21:54.271Z,1017.26
2018-12-18T03:22:55.106Z,1017.26
2018-12-18T03:23:54.220Z,1017.20
2018-12-18T03:24:54.197Z,1017.24
2018-12-18T03:25:54.172Z,1017.26
2018-12-18T03:26:54.147Z,1017.21
2018-12-18T03:27:54.121Z,1017.22
2018-12-18T03:28:54.099Z,1017.23
2018-12-18T03:29:54.100Z,1017.20
2018-12-18T03:30:54.048Z,1017.16
2018-12-18T03:31:54.031Z,1017.18
2018-12-18T03:32:54.000Z,1017.19
2018-12-18T03:33:53.971Z,1017.21
2018-12-18T03:34:53.952Z,1017.20
2018-12-18T03:35:53.926Z,1017.22
2018-12-18T03:36:53.897Z,1017.21
2018-12-18T03:37:53.883Z,1017.22
2018-12-18T03:38:53.850Z,1017.21
2018-12-18T03:39:53.826Z,1017.19
2018-12-18T03:40:53.807Z,1017.16
2018-12-18T03:41:53.776Z,1017.17
2018-12-18T03:42:53.750Z,1017.13
2018-12-18T03:43:53.782Z,1017.08
2018-12-18T03:44:53.700Z,1017.12
2018-12-18T03:45:53.676Z,1017.13
2018-12-18T03:46:53.649Z,1017.07
2018-12-18T03:47:53.628Z,1017.06
2018-12-18T03:48:53.599Z,1017.05
2018-12-18T03:49:53.574Z,1017.10
2018-12-18T03:50:53.548Z,1017.07
2018-12-18T03:51:53.558Z,1017.08
2018-12-18T03:52:53.506Z,1017.09
2018-12-18T03:53:53.476Z,1017.11
2018-12-18T03:54:53.452Z,1017.15
2018-12-18T03:55:53.426Z,1017.16
2018-12-18T03:56:53.402Z,1017.18
2018-12-18T03:57:53.378Z,1017.07
2018-12-18T03:58:53.353Z,1017.13
2018-12-18T03:59:53.329Z,1017.14
2018-12-18T04:00:53.306Z,1017.08
2018-12-18T04:01:53.279Z,1017.12
2018-12-18T04:02:53.251Z,1017.10
2018-12-18T04:03:53.229Z,1017.10
2018-12-18T04:04:53.203Z,1017.15
2018-12-18T04:05:53.178Z,1017.11
2018-12-18T04:06:53.156Z,1017.15
2018-12-18T04:07:53.129Z,1017.11
2018-12-18T04:08:53.107Z,1017.16
2018-12-18T04:09:53.080Z,1017.13
2018-12-18T04:10:53.057Z,1017.17
2018-12-18T04:11:53.031Z,1017.17
2018-12-18T04:12:53.005Z,1017.14
2018-12-18T04:13:52.981Z,1017.20
2018-12-18T04:14:52.954Z,1017.22
2018-12-18T04:15:52.933Z,1017.24
2018-12-18T04:16:52.905Z,1017.27
2018-12-18T04:17:52.882Z,1017.18
2018-12-18T04:18:52.856Z,1017.15
2018-12-18T04:19:52.831Z,1017.21
2018-12-18T04:20:52.810Z,1017.15
2018-12-18T04:21:52.782Z,1017.29
2018-12-18T04:22:52.755Z,1017.11
2018-12-18T04:23:53.213Z,1017.17
2018-12-18T04:24:52.712Z,1017.11
2018-12-18T04:25:52.690Z,1017.14
2018-12-18T04:26:52.662Z,1017.07
2018-12-18T04:27:52.630Z,1017.12
2018-12-18T04:28:52.610Z,1017.12
2018-12-18T04:29:52.582Z,1017.17
2018-12-18T04:30:52.556Z,1017.15
2018-12-18T04:31:52.531Z,1017.07
2018-12-18T04:32:52.507Z,1017.03
2018-12-18T04:33:52.482Z,1017.08
2018-12-18T04:34:52.455Z,1017.06
2018-12-18T04:35:52.433Z,1017.08
2018-12-18T04:36:52.405Z,1017.08
2018-12-18T04:37:52.381Z,1017.05
2018-12-18T04:38:52.355Z,1017.06
2018-12-18T04:39:52.329Z,1017.02
2018-12-18T04:40:52.304Z,1017.10
2018-12-18T04:41:52.284Z,1017.08
2018-12-18T04:42:52.253Z,1017.09
2018-12-18T04:43:52.242Z,1017.10
2018-12-18T04:44:52.204Z,1017.10
2018-12-18T04:45:52.181Z,1017.17
2018-12-18T04:46:52.153Z,1017.15
2018-12-18T04:47:52.128Z,1017.09
2018-12-18T04:48:52.102Z,1017.13
2018-12-18T04:49:52.081Z,1017.15
2018-12-18T04:50:52.054Z,1017.18
2018-12-18T04:51:52.027Z,1017.19
2018-12-18T04:52:52.004Z,1017.21
2018-12-18T04:53:51.981Z,1017.22
2018-12-18T04:54:51.953Z,1017.20
2018-12-18T04:55:51.927Z,1017.24
2018-12-18T04:56:51.905Z,1017.23
2018-12-18T04:57:51.878Z,1017.20
2018-12-18T04:58:51.853Z,1017.19
2018-12-18T04:59:51.827Z,1017.17
2018-12-18T05:00:51.804Z,1017.20
2018-12-18T05:01:51.779Z,1017.19
2018-12-18T05:02:51.751Z,1017.23
2018-12-18T05:03:51.726Z,1017.27
2018-12-18T05:04:51.700Z,1017.25
2018-12-18T05:05:51.678Z,1017.28
2018-12-18T05:06:51.652Z,1017.23
2018-12-18T05:07:51.629Z,1017.26
2018-12-18T05:08:51.606Z,1017.25
2018-12-18T05:09:51.577Z,1017.25
2018-12-18T05:10:51.551Z,1017.29
2018-12-18T05:11:51.527Z,1017.24
2018-12-18T05:12:51.501Z,1017.29
2018-12-18T05:13:51.482Z,1017.25
2018-12-18T05:14:51.451Z,1017.27
2018-12-18T05:15:51.428Z,1017.25
2018-12-18T05:16:51.401Z,1017.25
2018-12-18T05:17:51.376Z,1017.23
2018-12-18T05:18:51.356Z,1017.28
2018-12-18T05:19:51.328Z,1017.18
2018-12-18T05:20:51.303Z,1017.20
2018-12-18T05:21:51.276Z,1017.16
2018-12-18T05:22:51.254Z,1017.17
2018-12-18T05:23:51.227Z,1017.08
2018-12-18T05:24:51.201Z,1017.14
2018-12-18T05:25:51.177Z,1017.14
2018-12-18T05:26:51.151Z,1017.10
2018-12-18T05:27:51.126Z,1017.09
2018-12-18T05:28:51.112Z,1017.07
2018-12-18T05:29:51.077Z,1017.05
2018-12-18T05:30:51.053Z,1017.09
2018-12-18T05:31:51.034Z,1017.13
2018-12-18T05:32:51.001Z,1017.11
2018-12-18T05:33:50.978Z,1017.11
2018-12-18T05:34:56.389Z,1017.14
2018-12-18T05:35:50.927Z,1017.12
2018-12-18T05:36:50.903Z,1017.16
2018-12-18T05:37:50.877Z,1017.12
2018-12-18T05:38:50.852Z,1017.07
2018-12-18T05:39:50.828Z,1017.11
2018-12-18T05:40:50.803Z,1017.11
2018-12-18T05:41:50.780Z,1017.10
2018-12-18T05:42:50.755Z,1017.09
2018-12-18T05:43:50.729Z,1017.11
2018-12-18T05:44:50.704Z,1017.16
2018-12-18T05:45:50.680Z,1017.13
2018-12-18T05:46:50.653Z,1017.12
2018-12-18T05:47:50.628Z,1017.16
2018-12-18T05:48:50.602Z,1017.15
2018-12-18T05:49:50.580Z,1017.16
2018-12-18T05:50:50.554Z,1017.13
2018-12-18T05:51:50.529Z,1017.09
2018-12-18T05:52:50.512Z,1017.09
2018-12-18T05:53:50.484Z,1017.12
2018-12-18T05:54:50.457Z,1017.09
2018-12-18T05:55:50.429Z,1017.09
2018-12-18T05:56:50.415Z,1017.06
2018-12-18T05:57:50.384Z,1017.09
2018-12-18T05:58:50.354Z,1017.09
2018-12-18T05:59:50.332Z,1017.08
2018-12-18T06:00:50.307Z,1017.09
2018-12-18T06:01:50.281Z,1017.07
2018-12-18T06:02:50.260Z,1017.09
2018-12-18T06:03:50.233Z,1017.05
2018-12-18T06:04:50.210Z,1017.08
2018-12-18T06:05:50.180Z,1017.15
2018-12-18T06:06:50.155Z,1017.17
2018-12-18T06:07:50.132Z,1017.21
2018-12-18T06:08:50.107Z,1017.16
2018-12-18T06:09:50.082Z,1017.23
2018-12-18T06:10:50.058Z,1017.25
2018-12-18T06:11:50.031Z,1017.23
2018-12-18T06:12:50.008Z,1017.25
2018-12-18T06:13:49.983Z,1017.30
2018-12-18T06:14:49.960Z,1017.30
2018-12-18T06:15:49.937Z,1017.29
2018-12-18T06:16:49.910Z,1017.33
2018-12-18T06:17:49.979Z,1017.31
2018-12-18T06:18:49.857Z,1017.31
2018-12-18T06:19:49.836Z,1017.31
2018-12-18T06:20:49.810Z,1017.34
2018-12-18T06:21:49.784Z,1017.29
2018-12-18T06:22:49.761Z,1017.37
2018-12-18T06:23:49.733Z,1017.33
2018-12-18T06:24:49.712Z,1017.30
2018-12-18T06:25:50.410Z,1017.35
2018-12-18T06:26:49.658Z,1017.35
2018-12-18T06:27:49.633Z,1017.28
2018-12-18T06:28:49.613Z,1017.34
2018-12-18T06:29:49.583Z,1017.32
2018-12-18T06:30:49.557Z,1017.27
2018-12-18T06:31:49.536Z,1017.27
2018-12-18T06:32:49.508Z,1017.22
2018-12-18T06:33:49.495Z,1017.26
2018-12-18T06:34:49.459Z,1017.28
2018-12-18T06:35:49.437Z,1017.29
2018-12-18T06:36:49.414Z,1017.26
2018-12-18T06:37:49.386Z,1017.26
2018-12-18T06:38:49.360Z,1017.28
2018-12-18T06:39:49.335Z,1017.29
2018-12-18T06:40:49.310Z,1017.25
2018-12-18T06:41:49.284Z,1017.28
2018-12-18T06:42:49.260Z,1017.31
2018-12-18T06:43:49.236Z,1017.30
2018-12-18T06:44:49.212Z,1017.28
2018-12-18T06:45:49.186Z,1017.32
2018-12-18T06:46:49.162Z,1017.24
2018-12-18T06:47:49.139Z,1017.28
2018-12-18T06:48:49.113Z,1017.27
2018-12-18T06:49:49.092Z,1017.27
2018-12-18T06:50:49.062Z,1017.30
2018-12-18T06:51:49.036Z,1017.29
2018-12-18T06:52:49.015Z,1017.34
2018-12-18T06:53:48.999Z,1017.36
2018-12-18T06:54:48.963Z,1017.35
2018-12-18T06:55:48.938Z,1017.36
2018-12-18T06:56:48.914Z,1017.41
2018-12-18T06:57:48.887Z,1017.38
2018-12-18T06:58:48.863Z,1017.43
2018-12-18T06:59:48.839Z,1017.44
2018-12-18T07:00:48.814Z,1017.42
2018-12-18T07:01:48.789Z,1017.41
2018-12-18T07:02:48.764Z,1017.42
2018-12-18T07:03:48.739Z,1017.42
2018-12-18T07:04:48.716Z,1017.43
2018-12-18T07:05:48.691Z,1017.41
2018-12-18T07:06:48.666Z,1017.45
2018-12-18T07:07:48.648Z,1017.43
2018-12-18T07:08:48.615Z,1017.44
2018-12-18T07:09:48.591Z,1017.44
2018-12-18T07:10:48.570Z,1017.45
2018-12-18T07:11:48.543Z,1017.44
2018-12-18T07:12:48.516Z,1017.42
2018-12-18T07:13:48.491Z,1017.44
2018-12-18T07:14:48.466Z,1017.39
2018-12-18T07:15:48.443Z,1017.39
2018-12-18T07:16:48.417Z,1017.37
2018-12-18T07:17:48.391Z,1017.37
2018-12-18T07:18:48.378Z,1017.39
2018-12-18T07:19:48.343Z,1017.39
2018-12-18T07:20:48.320Z,1017.41
2018-12-18T07:21:48.292Z,1017.39
2018-12-18T07:22:48.268Z,1017.41
2018-12-18T07:23:48.242Z,1017.37
2018-12-18T07:24:48.217Z,1017.40
2018-12-18T07:25:48.195Z,1017.39
2018-12-18T07:26:48.396Z,1017.34
2018-12-18T07:27:48.143Z,1017.39
2018-12-18T07:28:48.119Z,1017.37
2018-12-18T07:29:48.094Z,1017.40
2018-12-18T07:30:48.068Z,1017.40
2018-12-18T07:31:48.043Z,1017.44
2018-12-18T07:32:48.020Z,1017.41
2018-12-18T07:33:47.994Z,1017.43
2018-12-18T07:34:47.970Z,1017.44
2018-12-18T07:35:47.945Z,1017.44
2018-12-18T07:36:47.921Z,1017.47
2018-12-18T07:37:47.895Z,1017.44
2018-12-18T07:38:47.871Z,1017.43
2018-12-18T07:39:47.845Z,1017.43
2018-12-18T07:40:47.822Z,1017.47
2018-12-18T07:41:47.797Z,1017.46
2018-12-18T07:42:47.770Z,1017.48
2018-12-18T07:43:47.748Z,1017.47
2018-12-18T07:44:47.723Z,1017.42
2018-12-18T07:45:47.698Z,1017.41
2018-12-18T07:46:47.671Z,1017.37
2018-12-18T07:47:47.651Z,1017.37
2018-12-18T07:48:47.627Z,1017.34
2018-12-18T07:49:47.598Z,1017.34
2018-12-18T07:50:47.576Z,1017.33
2018-12-18T07:51:47.548Z,1017.29
2018-12-18T07:52:47.524Z,1017.24
2018-12-18T07:53:47.501Z,1017.18
2018-12-18T07:54:47.480Z,1017.13
2018-12-18T07:55:47.449Z,1017.10
2018-12-18T07:56:47.429Z,1017.07
2018-12-18T07:57:48.378Z,1017.02
2018-12-18T07:58:47.384Z,1016.98
2018-12-18T07:59:47.352Z,1016.98
2018-12-18T08:00:47.330Z,1016.96
2018-12-18T08:01:47.302Z,1016.89
2018-12-18T08:02:47.275Z,1016.88
2018-12-18T08:03:47.251Z,1016.87
2018-12-18T08:04:47.226Z,1016.84
2018-12-18T08:05:47.202Z,1016.84
2018-12-18T08:06:47.177Z,1016.82
2018-12-18T08:07:47.154Z,1016.82
2018-12-18T08:08:47.126Z,1016.83
2018-12-18T08:09:47.102Z,1016.84
2018-12-18T08:10:47.076Z,1016.83
2018-12-18T08:11:47.050Z,1016.82
2018-12-18T08:12:47.028Z,1016.86
2018-12-18T08:13:47.002Z,1016.84
2018-12-18T08:14:46.977Z,1016.86
2018-12-18T08:15:46.953Z,1016.86
2018-12-18T08:16:46.927Z,1016.85
2018-12-18T08:17:46.904Z,1016.87
2018-12-18T08:18:46.877Z,1016.89
2018-12-18T08:19:46.854Z,1016.81
2018-12-18T08:20:46.828Z,1016.85
2018-12-18T08:21:46.801Z,1016.82
2018-12-18T08:22:46.779Z,1016.80
2018-12-18T08:23:46.753Z,1016.80
2018-12-18T08:24:46.725Z,1016.78
2018-12-18T08:25:46.703Z,1016.78
2018-12-18T08:26:46.676Z,1016.73
2018-12-18T08:27:46.656Z,1016.76
2018-12-18T08:28:46.625Z,1016.75
2018-12-18T08:29:46.601Z,1016.71
2018-12-18T08:30:46.577Z,1016.74
2018-12-18T08:31:46.550Z,1016.77
2018-12-18T08:32:46.526Z,1016.78
2018-12-18T08:33:46.501Z,1016.78
2018-12-18T08:34:46.474Z,1016.79
2018-12-18T08:35:46.449Z,1016.77
2018-12-18T08:36:46.424Z,1016.80
2018-12-18T08:37:46.402Z,1016.79
2018-12-18T08:38:46.374Z,1016.80
2018-12-18T08:39:46.349Z,1016.81
2018-12-18T08:40:46.347Z,1016.78
2018-12-18T08:41:46.301Z,1016.74
2018-12-18T08:42:46.274Z,1016.76
2018-12-18T08:43:46.251Z,1016.73
2018-12-18T08:44:46.223Z,1016.70
2018-12-18T08:45:46.199Z,1016.66
2018-12-18T08:46:46.175Z,1016.68
2018-12-18T08:47:46.147Z,1016.67
2018-12-18T08:48:46.124Z,1016.67
2018-12-18T08:49:46.102Z,1016.66
2018-12-18T08:50:46.073Z,1016.66
2018-12-18T08:51:46.047Z,1016.69
2018-12-18T08:52:46.024Z,1016.69
2018-12-18T08:53:45.999Z,1016.66
2018-12-18T08:54:45.972Z,1016.66
2018-12-18T08:55:45.947Z,1016.68
2018-12-18T08:56:45.925Z,1016.72
2018-12-18T08:57:45.900Z,1016.74
2018-12-18T08:58:46.351Z,1016.75
2018-12-18T08:59:45.847Z,1016.76
2018-12-18T09:00:45.823Z,1016.75
2018-12-18T09:01:45.799Z,1016.77
2018-12-18T09:02:45.771Z,1016.82
2018-12-18T09:03:45.746Z,1016.80
2018-12-18T09:04:45.725Z,1016.75
2018-12-18T09:05:45.699Z,1016.78
2018-12-18T09:06:45.677Z,1016.78
2018-12-18T09:07:45.645Z,1016.77
2018-12-18T09:08:45.620Z,1016.79
2018-12-18T09:09:45.597Z,1016.70
2018-12-18T09:10:45.574Z,1016.67
2018-12-18T09:11:45.546Z,1016.67
2018-12-18T09:12:45.522Z,1016.63
2018-12-18T09:13:45.500Z,1016.62
2018-12-18T09:14:45.471Z,1016.58
2018-12-18T09:15:45.447Z,1016.54
2018-12-18T09:16:45.421Z,1016.50
2018-12-18T09:17:45.397Z,1016.48
2018-12-18T09:18:45.370Z,1016.47
2018-12-18T09:19:45.347Z,1016.46
2018-12-18T09:20:45.323Z,1016.42
2018-12-18T09:21:45.296Z,1016.47
2018-12-18T09:22:45.273Z,1016.47
2018-12-18T09:23:45.245Z,1016.42
2018-12-18T09:24:45.221Z,1016.40
2018-12-18T09:25:45.198Z,1016.37
2018-12-18T09:26:45.172Z,1016.36
2018-12-18T09:27:45.146Z,1016.31
2018-12-18T09:28:45.122Z,1016.35
2018-12-18T09:29:45.102Z,1016.33
2018-12-18T09:30:45.070Z,1016.30
2018-12-18T09:31:45.045Z,1016.32
2018-12-18T09:32:45.022Z,1016.29
2018-12-18T09:33:44.999Z,1016.27
2018-12-18T09:34:44.972Z,1016.27
2018-12-18T09:35:49.630Z,1016.23
2018-12-18T09:36:44.926Z,1016.25
2018-12-18T09:37:44.897Z,1016.19
2018-12-18T09:38:44.875Z,1016.19
2018-12-18T09:39:44.848Z,1016.18
2018-12-18T09:40:44.823Z,1016.14
2018-12-18T09:41:44.797Z,1016.10
2018-12-18T09:42:44.772Z,1016.11
2018-12-18T09:43:44.754Z,1016.11
2018-12-18T09:44:44.724Z,1016.12
2018-12-18T09:45:44.700Z,1016.11
2018-12-18T09:46:44.675Z,1016.14
2018-12-18T09:47:44.649Z,1016.16
2018-12-18T09:48:44.625Z,1016.17
2018-12-18T09:49:44.603Z,1016.18
2018-12-18T09:50:44.575Z,1016.23
2018-12-18T09:51:44.551Z,1016.24
2018-12-18T09:52:44.531Z,1016.18
2018-12-18T09:53:44.503Z,1016.20
2018-12-18T09:54:44.476Z,1016.16
2018-12-18T09:55:44.459Z,1016.16
2018-12-18T09:56:44.427Z,1016.21
2018-12-18T09:57:44.404Z,1016.20
2018-12-18T09:58:44.381Z,1016.16
2018-12-18T09:59:44.352Z,1016.10
2018-12-18T10:00:44.332Z,1016.11
2018-12-18T10:01:44.305Z,1016.07
2018-12-18T10:02:44.281Z,1016.05
2018-12-18T10:03:44.256Z,1016.03
2018-12-18T10:04:44.230Z,1016.02
2018-12-18T10:05:44.209Z,1016.00
2018-12-18T10:06:45.102Z,1016.00
2018-12-18T10:07:44.157Z,1015.98
2018-12-18T10:08:44.137Z,1015.98
2018-12-18T10:09:44.109Z,1015.94
2018-12-18T10:10:44.084Z,1015.92
2018-12-18T10:11:44.058Z,1015.96
2018-12-18T10:12:44.036Z,1015.91
2018-12-18T10:13:44.011Z,1015.86
2018-12-18T10:14:43.984Z,1015.86
2018-12-18T10:15:43.966Z,1015.82
2018-12-18T10:16:43.935Z,1015.83
2018-12-18T10:17:43.914Z,1015.83
2018-12-18T10:18:43.887Z,1015.83
2018-12-18T10:19:43.863Z,1015.78
2018-12-18T10:20:43.839Z,1015.79
2018-12-18T10:21:43.813Z,1015.79
2018-12-18T10:22:43.792Z,1015.75
2018-12-18T10:23:43.764Z,1015.83
2018-12-18T10:24:43.740Z,1015.74
2018-12-18T10:25:43.717Z,1015.79
2018-12-18T10:26:43.693Z,1015.81
2018-12-18T10:27:43.667Z,1015.81
2018-12-18T10:28:43.643Z,1015.78
2018-12-18T10:29:43.619Z,1015.74
2018-12-18T10:30:44.317Z,1015.79
2018-12-18T10:31:43.582Z,1015.72
2018-12-18T10:32:43.544Z,1015.77
2018-12-18T10:33:43.522Z,1015.68
2018-12-18T10:34:43.495Z,1015.67
2018-12-18T10:35:43.472Z,1015.65
2018-12-18T10:36:43.449Z,1015.68
2018-12-18T10:37:43.423Z,1015.67
2018-12-18T10:38:43.397Z,1015.70
2018-12-18T10:39:43.375Z,1015.69
2018-12-18T10:40:43.350Z,1015.68
2018-12-18T10:41:43.326Z,1015.63
2018-12-18T10:42:43.300Z,1015.64
2018-12-18T10:43:43.302Z,1015.64
2018-12-18T10:44:43.251Z,1015.65
2018-12-18T10:45:43.228Z,1015.61
2018-12-18T10:46:43.203Z,1015.58
2018-12-18T10:47:43.188Z,1015.58
2018-12-18T10:48:43.154Z,1015.53
2018-12-18T10:49:43.131Z,1015.52
2018-12-18T10:50:43.107Z,1015.51
2018-12-18T10:51:43.082Z,1015.50
2018-12-18T10:52:43.056Z,1015.45
2018-12-18T10:53:43.033Z,1015.40
2018-12-18T10:54:43.008Z,1015.36
2018-12-18T10:55:42.985Z,1015.31
2018-12-18T10:56:42.960Z,1015.34
2018-12-18T10:57:42.936Z,1015.34
2018-12-18T10:58:42.913Z,1015.29
2018-12-18T10:59:42.886Z,1015.34
2018-12-18T11:00:42.864Z,1015.32
2018-12-18T11:01:42.840Z,1015.34
2018-12-18T11:02:42.815Z,1015.31
2018-12-18T11:03:42.794Z,1015.35
2018-12-18T11:04:42.766Z,1015.36
2018-12-18T11:05:42.742Z,1015.35
2018-12-18T11:06:42.719Z,1015.36
2018-12-18T11:07:42.694Z,1015.32
2018-12-18T11:08:42.672Z,1015.24
2018-12-18T11:09:42.647Z,1015.21
2018-12-18T11:10:42.622Z,1015.20
2018-12-18T11:11:42.598Z,1015.17
2018-12-18T11:12:42.573Z,1015.18
2018-12-18T11:13:42.550Z,1015.14
2018-12-18T11:14:42.526Z,1015.12
2018-12-18T11:15:42.502Z,1015.07
2018-12-18T11:16:42.481Z,1015.04
2018-12-18T11:17:42.455Z,1015.01
2018-12-18T11:18:42.435Z,1015.07
2018-12-18T11:19:42.405Z,1014.98
2018-12-18T11:20:42.384Z,1015.01
2018-12-18T11:21:42.360Z,1014.99
2018-12-18T11:22:42.335Z,1014.90
2018-12-18T11:23:42.313Z,1014.91
2018-12-18T11:24:42.288Z,1014.86
2018-12-18T11:25:42.290Z,1014.85
2018-12-18T11:26:42.237Z,1014.83
2018-12-18T11:27:42.215Z,1014.78
2018-12-18T11:28:42.192Z,1014.77
2018-12-18T11:29:42.173Z,1014.79
2018-12-18T11:30:42.144Z,1014.72
2018-12-18T11:31:42.294Z,1014.68
2018-12-18T11:32:42.099Z,1014.68
2018-12-18T11:33:42.074Z,1014.68
2018-12-18T11:34:42.050Z,1014.62
2018-12-18T11:35:42.028Z,1014.58
2018-12-18T11:36:42.003Z,1014.56
2018-12-18T11:37:41.980Z,1014.55
2018-12-18T11:38:41.956Z,1014.54
2018-12-18T11:39:41.932Z,1014.54
2018-12-18T11:40:41.909Z,1014.54
2018-12-18T11:41:41.885Z,1014.54
2018-12-18T11:42:41.864Z,1014.51
2018-12-18T11:43:41.840Z,1014.48
2018-12-18T11:44:41.817Z,1014.49
2018-12-18T11:45:41.830Z,1014.42
2018-12-18T11:46:41.766Z,1014.37
2018-12-18T11:47:41.745Z,1014.41
2018-12-18T11:48:41.795Z,1014.38
2018-12-18T11:49:41.700Z,1014.34
2018-12-18T11:50:41.678Z,1014.34
2018-12-18T11:51:41.654Z,1014.32
2018-12-18T11:52:41.636Z,1014.32
2018-12-18T11:53:41.606Z,1014.33
2018-12-18T11:54:41.583Z,1014.34
2018-12-18T11:55:41.562Z,1014.33
2018-12-18T11:56:41.554Z,1014.33
2018-12-18T11:57:41.517Z,1014.28
2018-12-18T11:58:41.493Z,1014.29
2018-12-18T11:59:41.483Z,1014.21
2018-12-18T12:00:41.451Z,1014.21
2018-12-18T12:01:41.424Z,1014.20
2018-12-18T12:02:42.922Z,1014.18
2018-12-18T12:03:41.376Z,1014.19
2018-12-18T12:04:41.353Z,1014.17
2018-12-18T12:05:41.332Z,1014.18